Terminal Aerodrome Forecast
Issued by NWS

Home | Current Version | Previous Version | Text Only | Print | Product List | Glossary On
Versions: 1 2 3 4 5 6 7 8 9 10 11 12 13 14 15 16 17 18 19 20 21 22 23 24 25 26 27 28 29 30 31 32 33 34 35 36 37 38 39 40 41 42 43 44 45 46 47 48 49 50
000
FTUS44 KHGX 191139
TAFLBX
TAF
KLBX 191139Z 1912/2012 VRB03KT 6SM BR SCT007
     FM191500 21009KT P6SM SCT020 BKN250
     FM191800 21013KT P6SM SCT030 BKN250
     FM200000 22011KT P6SM FEW025 SCT070
     FM200300 20004KT P6SM FEW100 BKN250
     FM200900 01011KT P6SM BKN250=

USA.gov is the U.S. government's official web portal to all federal, state and local government web resources and services.